Aeroporto :
LOGIN :

Iscrizione | Disclaimer

   EN    FR    IT 

 










Sommario :    VFR   VFR Marginale   IFR   IFR Intensivo   IFR Molto Intensivo
Visibilità : 
Base nubi : 
>= 8 km
>= 3000ft
5 / 8 km
1000 / 3000 ft
1500m / 5 km
500 / 1000 ft
800 / 1500m
200 / 500 ft
< 800m
< 200 ft
Simboli :   Temporali  Nebbia  Neve Forte  Precipitazioni Forti  Vento > 20 kt
SIGMETs :   Varie  Temporali  Ghiacco  Turbolenza  Onda orograficha  Ceneri Vulcaniche






- Altitudine del aeroporto : 844 ft
- Codice IATA : OSR


LKMT - Ostrava-Mosnov

ULTIMO METAR :
  • 150530Z 21003KT CAVOK 05/M00 Q1008 NOSIG

METARs OBSOLETI :
  • 150500Z 23005KT CAVOK 05/M00 Q1008 TEMPO RA
  • 150430Z 23007KT CAVOK 05/M00 Q1008 TEMPO RA
  • 150400Z 23011KT 9999 FEW043 06/00 Q1008 NOSIG
  • 150330Z 22014KT CAVOK 06/00 Q1007 NOSIG
  • 150300Z 23016KT CAVOK 06/00 Q1007 NOSIG

TAF TAF LKMT
Valido dal 15 a 06 ore il 16 a 12 ore UTC


150500Z 1506/1612 22012KT 9999 SCT036
BECMG 1507/1510 BKN030
TEMPO 1510/1600 7000 -RA BKN014



MetMap, La meteo Aeronautica in un colpo d'occhio ! - Copyright ORBIFLY Dicembre 2007 - Disclaimer

ORBIFLY MET'MAP TEAM :

Programmazione e sviluppo : Alexandra Zaïnal
Concezione : Baudouin d'Aumeries
Aiuto per la programmazione : Marc-Olivier Méhu
Supporto tecnico e logistico : Manuel Goepfert
Aiuto per la traduzione : Arnaldo La Scala

Contatto : metmap@orbifly.com




FONTI E CREDITI :

   NOAA